Time;durP1;ratioP1;P1;durP2;ratioP2;P2;SDS_P1;SDS_P2;PMS_P1;PMS_P2;Temp;Humidity;BMP_temperature;BMP_pressure;BME280_temperature;BME280_humidity;BME280_pressure;Samples;Min_cycle;Max_cycle;Signal;HPM_P1;HPM_P2
2021/11/26 00:01:03;;;;;;;13.10;1.95;;;21.80;18.80;;;;;;5048743;28;20507;-66
2021/11/26 00:03:31;;;;;;;8.80;1.60;;;21.80;18.80;;;;;;5032608;28;20160;-66
2021/11/26 00:05:58;;;;;;;5.63;1.52;;;21.70;19.00;;;;;;5048511;28;20302;-67
2021/11/26 00:08:24;;;;;;;10.15;1.88;;;21.70;19.10;;;;;;5048834;28;20092;-67
2021/11/26 00:10:51;;;;;;;10.45;1.60;;;21.60;19.10;;;;;;5067109;28;20081;-66
2021/11/26 00:13:17;;;;;;;9.65;2.20;;;21.50;19.30;;;;;;5049312;28;20082;-65
2021/11/26 00:15:44;;;;;;;8.93;1.40;;;21.50;19.80;;;;;;5065479;28;20105;-69
2021/11/26 00:18:20;;;;;;;10.23;1.80;;;21.40;19.30;;;;;;5046815;28;20527;-68
2021/11/26 00:20:48;;;;;;;11.20;1.73;;;21.40;19.60;;;;;;5047252;28;20100;-66
2021/11/26 00:23:15;;;;;;;12.10;1.52;;;21.30;19.90;;;;;;5065145;28;20436;-66
2021/11/26 00:25:42;;;;;;;11.35;1.60;;;21.20;19.60;;;;;;5064378;28;20077;-66
2021/11/26 00:28:08;;;;;;;17.25;1.95;;;21.10;20.00;;;;;;5061996;28;20087;-66
2021/11/26 00:30:35;;;;;;;8.02;1.77;;;21.10;19.70;;;;;;5076745;28;20224;-65
2021/11/26 00:33:02;;;;;;;14.88;2.17;;;21.00;20.00;;;;;;5097748;28;20221;-65
2021/11/26 00:35:29;;;;;;;13.48;1.73;;;20.90;20.20;;;;;;5089223;28;20102;-63
2021/11/26 00:37:55;;;;;;;21.55;2.20;;;20.80;20.20;;;;;;5096979;28;20182;-66
2021/11/26 00:40:22;;;;;;;13.15;3.13;;;20.80;20.20;;;;;;5078436;28;20127;-66
2021/11/26 00:42:48;;;;;;;11.63;2.72;;;20.70;20.30;;;;;;5096594;28;20083;-65
2021/11/26 00:45:16;;;;;;;16.13;2.35;;;20.60;20.10;;;;;;5089613;28;20076;-66
2021/11/26 00:47:44;;;;;;;13.20;2.55;;;20.50;20.20;;;;;;5088743;28;20158;-66
2021/11/26 00:50:12;;;;;;;10.73;1.77;;;20.50;20.40;;;;;;5076748;28;20092;-66
2021/11/26 00:52:38;;;;;;;11.70;1.95;;;20.40;20.40;;;;;;5079707;28;20076;-65
2021/11/26 00:55:06;;;;;;;11.57;2.83;;;20.40;20.80;;;;;;5076798;28;20427;-66
2021/11/26 00:57:32;;;;;;;14.82;2.63;;;20.30;20.80;;;;;;5089147;28;20175;-64
2021/11/26 00:59:59;;;;;;;27.95;2.65;;;20.20;20.90;;;;;;5097952;28;20093;-64
2021/11/26 01:02:25;;;;;;;13.00;2.10;;;20.20;20.90;;;;;;5097959;28;20068;-64
2021/11/26 01:04:51;;;;;;;;;;;20.10;20.90;;;;;;5079311;28;20111;-62
2021/11/26 01:07:17;;;;;;;10.20;2.08;;;20.00;21.10;;;;;;5080378;28;19963;-63
2021/11/26 01:09:43;;;;;;;;;;;20.00;21.10;;;;;;5079636;28;20076;-64
2021/11/26 01:12:10;;;;;;;18.55;2.80;;;20.00;21.30;;;;;;5079538;28;20003;-63
2021/11/26 01:14:36;;;;;;;16.42;3.03;;;19.90;21.50;;;;;;5079449;28;20091;-64
2021/11/26 01:17:03;;;;;;;11.55;3.70;;;19.80;21.50;;;;;;5089131;28;20435;-65
2021/11/26 01:19:29;;;;;;;;;;;19.70;21.90;;;;;;5098256;28;20088;-65
2021/11/26 01:21:55;;;;;;;23.40;10.10;;;19.70;22.80;;;;;;5071729;28;20322;-65
2021/11/26 01:24:21;;;;;;;;;;;19.60;23.40;;;;;;5098169;28;20076;-65
2021/11/26 01:26:48;;;;;;;18.30;5.25;;;19.50;23.80;;;;;;5068815;28;20069;-66
2021/11/26 01:29:14;;;;;;;;;;;19.40;23.90;;;;;;5077896;28;20540;-64
2021/11/26 01:31:41;;;;;;;19.77;3.08;;;19.30;23.90;;;;;;5063346;28;19999;-65
2021/11/26 01:34:09;;;;;;;16.40;2.92;;;19.30;23.90;;;;;;5080124;28;20578;-64
2021/11/26 01:36:36;;;;;;;14.05;2.58;;;19.20;23.80;;;;;;5071964;28;20197;-66
2021/11/26 01:39:04;;;;;;;18.23;2.60;;;19.20;23.70;;;;;;5089428;28;20127;-65
2021/11/26 01:41:30;;;;;;;21.88;2.63;;;19.10;23.90;;;;;;5088989;28;20122;-65
2021/11/26 01:43:57;;;;;;;22.77;2.42;;;19.10;23.50;;;;;;5080081;28;20527;-64
2021/11/26 01:46:23;;;;;;;12.15;2.28;;;19.10;23.30;;;;;;5097736;28;20423;-63
2021/11/26 01:48:50;;;;;;;6.93;1.73;;;19.00;23.40;;;;;;5078395;28;20076;-64
2021/11/26 01:51:16;;;;;;;;;;;19.00;23.40;;;;;;5089242;28;20566;-64
2021/11/26 01:53:43;;;;;;;13.27;1.90;;;18.90;23.00;;;;;;5088014;28;20356;-65
2021/11/26 01:56:10;;;;;;;13.30;2.00;;;18.90;22.90;;;;;;5078144;28;20569;-63
2021/11/26 01:58:38;;;;;;;19.55;1.92;;;18.90;23.10;;;;;;5088541;28;20092;-65
2021/11/26 02:01:05;;;;;;;14.57;2.20;;;18.90;22.90;;;;;;5097876;28;20538;-66
2021/11/26 02:03:32;;;;;;;24.52;2.58;;;18.80;23.00;;;;;;5088915;28;20115;-64
2021/11/26 02:05:58;;;;;;;14.73;2.15;;;18.80;23.00;;;;;;5095569;28;20601;-64
2021/11/26 02:08:25;;;;;;;11.38;2.42;;;18.80;23.10;;;;;;5076967;28;20076;-66
2021/11/26 02:10:51;;;;;;;13.55;2.20;;;18.80;23.10;;;;;;5077705;28;20492;-62
2021/11/26 02:13:18;;;;;;;18.02;2.25;;;18.80;23.20;;;;;;5096333;28;20615;-64
2021/11/26 02:15:45;;;;;;;12.25;2.30;;;18.80;23.40;;;;;;5075942;28;20114;-63
2021/11/26 02:18:14;;;;;;;11.25;2.05;;;18.70;23.60;;;;;;5080857;28;20125;-65
2021/11/26 02:20:41;;;;;;;12.93;2.63;;;18.70;23.90;;;;;;5101270;28;20084;-65
2021/11/26 02:23:08;;;;;;;16.63;2.40;;;18.70;23.90;;;;;;5092308;28;20179;-64
2021/11/26 02:25:34;;;;;;;14.32;2.53;;;18.60;23.90;;;;;;5081575;28;20160;-65
2021/11/26 02:28:04;;;;;;;19.75;2.53;;;18.60;23.90;;;;;;5082734;28;20103;-64
2021/11/26 02:30:30;;;;;;;16.92;3.05;;;18.60;24.00;;;;;;5075477;28;20171;-67
2021/11/26 02:33:04;;;;;;;18.60;3.97;;;18.50;24.20;;;;;;5082523;28;20088;-68
2021/11/26 02:35:32;;;;;;;19.00;3.33;;;18.50;24.30;;;;;;5101180;28;20442;-67
2021/11/26 02:37:59;;;;;;;17.50;5.28;;;18.40;24.30;;;;;;5090821;28;21435;-68
2021/11/26 02:40:28;;;;;;;30.23;5.65;;;18.40;24.40;;;;;;5101019;28;20485;-63
2021/11/26 02:42:55;;;;;;;23.77;6.20;;;18.40;24.70;;;;;;5091403;28;20132;-64
2021/11/26 02:45:23;;;;;;;28.38;6.10;;;18.30;24.90;;;;;;5081553;28;20135;-67
2021/11/26 02:47:50;;;;;;;22.92;6.07;;;18.20;25.40;;;;;;5075314;28;20138;-66
2021/11/26 02:50:18;;;;;;;18.17;5.80;;;18.20;26.00;;;;;;5079501;28;20099;-65
2021/11/26 02:52:45;;;;;;;23.20;6.05;;;18.10;26.40;;;;;;5078748;28;20092;-64
2021/11/26 02:55:16;;;;;;;22.60;5.10;;;18.00;26.60;;;;;;5101465;28;20080;-63
2021/11/26 02:57:43;;;;;;;17.50;4.75;;;17.90;27.00;;;;;;5083748;28;20068;-64
2021/11/26 03:00:12;;;;;;;22.08;4.72;;;17.90;27.70;;;;;;5101402;28;20089;-63
2021/11/26 03:02:38;;;;;;;23.17;4.55;;;17.80;27.80;;;;;;5101209;28;20091;-65
2021/11/26 03:05:05;;;;;;;22.25;4.25;;;17.70;27.80;;;;;;5091808;28;20076;-64
2021/11/26 03:07:31;;;;;;;20.50;4.10;;;17.70;28.10;;;;;;5098824;28;20168;-66
2021/11/26 03:09:58;;;;;;;29.70;4.35;;;17.60;28.00;;;;;;5078867;28;20134;-66
2021/11/26 03:12:25;;;;;;;45.85;3.60;;;17.60;28.20;;;;;;5074498;28;20099;-66
2021/11/26 03:14:51;;;;;;;19.02;3.40;;;17.50;28.40;;;;;;5091897;28;20082;-64
2021/11/26 03:17:18;;;;;;;;;;;17.50;28.60;;;;;;5074371;28;21060;-65
2021/11/26 03:19:45;;;;;;;30.70;4.15;;;17.40;28.40;;;;;;5082044;28;20018;-64
2021/11/26 03:22:11;;;;;;;18.95;3.65;;;17.40;27.50;;;;;;5079832;28;20096;-64
2021/11/26 03:24:39;;;;;;;19.63;4.13;;;17.40;27.40;;;;;;5099101;28;20080;-65
2021/11/26 03:27:05;;;;;;;37.80;4.95;;;17.40;27.40;;;;;;5098379;28;20077;-66
2021/11/26 03:29:31;;;;;;;28.13;5.25;;;17.40;27.30;;;;;;5079219;28;20072;-66
2021/11/26 03:31:58;;;;;;;;;;;17.40;27.60;;;;;;5100388;28;20119;-66
2021/11/26 03:34:25;;;;;;;31.67;6.07;;;17.40;27.80;;;;;;5090609;28;19956;-66
2021/11/26 03:36:51;;;;;;;39.30;8.25;;;17.30;28.00;;;;;;5078773;28;20129;-65
2021/11/26 03:39:18;;;;;;;42.53;8.95;;;17.30;28.80;;;;;;5077075;28;20093;-65
2021/11/26 03:41:44;;;;;;;;;;;17.20;28.30;;;;;;5091246;28;20069;-66
2021/11/26 03:44:10;;;;;;;41.22;5.72;;;17.20;28.30;;;;;;5070468;28;19956;-66
2021/11/26 03:46:37;;;;;;;30.35;4.72;;;17.10;27.60;;;;;;5080661;28;20124;-65
2021/11/26 03:49:03;;;;;;;;;;;17.10;27.50;;;;;;5091303;28;20076;-66
2021/11/26 03:51:30;;;;;;;40.05;5.35;;;17.00;26.50;;;;;;5069823;28;20441;-67
2021/11/26 03:53:56;;;;;;;;;;;17.00;26.30;;;;;;5101986;28;20286;-66
2021/11/26 03:56:22;;;;;;;41.55;6.35;;;17.00;26.00;;;;;;5081702;28;20059;-68
2021/11/26 03:58:49;;;;;;;31.98;6.05;;;16.90;43.30;;;;;;5079797;28;20188;-66
2021/11/26 04:01:15;;;;;;;;;;;16.90;26.20;;;;;;5077465;28;20083;-66
2021/11/26 04:03:41;;;;;;;29.60;5.00;;;16.90;25.80;;;;;;5099030;28;19964;-66
2021/11/26 04:06:07;;;;;;;27.17;4.97;;;16.90;25.60;;;;;;5079766;28;20144;-68
2021/11/26 04:08:33;;;;;;;;;;;16.80;25.50;;;;;;5079141;28;20085;-68
2021/11/26 04:11:00;;;;;;;30.75;4.57;;;16.80;25.50;;;;;;5069493;28;20426;-65
2021/11/26 04:13:26;;;;;;;28.35;4.35;;;16.70;25.40;;;;;;5095950;28;20655;-65
2021/11/26 04:16:00;;;;;;;22.08;3.95;;;16.70;25.30;;;;;;5078138;28;20080;-66
2021/11/26 04:18:27;;;;;;;28.08;5.82;;;16.70;25.40;;;;;;5095324;28;20099;-67
2021/11/26 04:20:54;;;;;;;29.83;9.07;;;16.70;25.40;;;;;;5077114;28;20100;-67
2021/11/26 04:23:20;;;;;;;30.33;8.32;;;16.70;25.60;;;;;;5078484;28;20153;-66
2021/11/26 04:25:46;;;;;;;;;;;16.60;25.70;;;;;;5080827;28;20577;-67
2021/11/26 04:28:12;;;;;;;33.03;7.65;;;16.60;25.80;;;;;;5072679;28;19995;-66
2021/11/26 04:30:38;;;;;;;;;;;16.60;26.20;;;;;;5089997;28;20565;-67
2021/11/26 04:33:05;;;;;;;43.60;11.10;;;16.60;26.40;;;;;;5082340;28;19971;-64
2021/11/26 04:35:31;;;;;;;;;;;16.50;26.50;;;;;;5079445;28;20083;-68
2021/11/26 04:37:57;;;;;;;31.63;7.90;;;16.50;26.70;;;;;;5090087;28;20059;-66
2021/11/26 04:40:23;;;;;;;;;;;16.60;26.80;;;;;;5075815;28;20097;-69
2021/11/26 04:42:50;;;;;;;39.65;7.78;;;16.50;27.00;;;;;;5069550;28;19964;-67
2021/11/26 04:45:16;;;;;;;;;;;16.40;26.90;;;;;;5078413;28;20454;-67
2021/11/26 04:47:44;;;;;;;38.17;9.25;;;16.40;27.10;;;;;;5089480;28;20038;-67
2021/11/26 04:50:11;;;;;;;35.70;7.00;;;16.40;27.40;;;;;;5080357;28;20106;-67
2021/11/26 04:52:38;;;;;;;35.88;9.43;;;16.40;27.50;;;;;;5072441;28;20080;-67
2021/11/26 04:55:06;;;;;;;31.90;9.88;;;16.40;27.60;;;;;;5098835;28;20092;-67
2021/11/26 04:57:33;;;;;;;33.17;7.78;;;16.40;27.60;;;;;;5098867;28;20077;-67
2021/11/26 05:00:00;;;;;;;33.97;7.65;;;16.40;27.20;;;;;;5089284;28;20092;-66
2021/11/26 05:02:27;;;;;;;38.45;7.40;;;16.30;27.10;;;;;;5096441;28;20534;-67
2021/11/26 05:04:53;;;;;;;24.40;5.55;;;16.30;26.80;;;;;;5079777;28;20080;-69
2021/11/26 05:07:21;;;;;;;32.30;5.88;;;16.30;26.10;;;;;;5098138;28;20102;-66
2021/11/26 05:09:48;;;;;;;25.30;5.78;;;16.30;25.80;;;;;;5077039;28;20077;-67
2021/11/26 05:12:14;;;;;;;26.25;5.30;;;16.40;25.70;;;;;;5080461;28;20442;-67
2021/11/26 05:14:41;;;;;;;30.88;6.07;;;16.40;25.20;;;;;;5097715;28;20075;-69
2021/11/26 05:17:07;;;;;;;;;;;16.40;24.80;;;;;;5096006;28;20198;-67
2021/11/26 05:19:33;;;;;;;42.28;20.40;;;16.40;24.60;;;;;;5097165;28;20079;-65
2021/11/26 05:21:59;;;;;;;;;;;16.50;23.60;;;;;;5095422;28;20076;-65
2021/11/26 05:24:26;;;;;;;72.80;34.13;;;16.50;23.40;;;;;;5078310;28;19967;-64
2021/11/26 05:26:52;;;;;;;;;;;16.50;23.10;;;;;;5096569;28;20068;-65
2021/11/26 05:29:18;;;;;;;25.02;5.32;;;16.50;22.90;;;;;;5068070;28;19964;-63
2021/11/26 05:31:44;;;;;;;25.15;3.97;;;16.50;22.80;;;;;;5079423;28;20117;-65
2021/11/26 05:34:11;;;;;;;;;;;16.50;22.50;;;;;;5078610;28;20603;-66
2021/11/26 05:36:38;;;;;;;18.30;3.70;;;16.60;22.20;;;;;;5097117;28;20000;-66
2021/11/26 05:39:06;;;;;;;22.58;7.10;;;16.60;21.90;;;;;;5078957;28;20073;-64
2021/11/26 05:41:33;;;;;;;29.85;4.93;;;16.60;22.00;;;;;;5079076;28;20115;-66
2021/11/26 05:43:59;;;;;;;25.90;7.45;;;16.60;21.80;;;;;;5087842;28;20068;-65
2021/11/26 05:46:25;;;;;;;;;;;16.60;21.70;;;;;;5097843;28;20076;-65
2021/11/26 05:48:52;;;;;;;25.45;6.20;;;16.60;21.90;;;;;;5068797;28;19987;-65
2021/11/26 05:51:18;;;;;;;;;;;16.60;22.00;;;;;;5099471;28;20172;-65
2021/11/26 05:53:44;;;;;;;20.20;2.97;;;16.60;22.50;;;;;;5083758;28;19972;-65
2021/11/26 05:56:10;;;;;;;16.55;3.10;;;16.60;22.80;;;;;;5080127;28;20075;-65
2021/11/26 05:58:36;;;;;;;;;;;16.60;23.00;;;;;;5092560;28;20438;-66
2021/11/26 06:01:03;;;;;;;19.40;2.65;;;16.60;23.40;;;;;;5101215;28;19972;-66
2021/11/26 06:03:29;;;;;;;12.30;2.15;;;16.60;23.70;;;;;;5074955;28;20129;-67
2021/11/26 06:05:56;;;;;;;11.68;2.60;;;16.60;24.00;;;;;;5092094;28;20098;-65
2021/11/26 06:08:23;;;;;;;18.83;2.78;;;16.60;24.20;;;;;;5100859;28;20477;-66
2021/11/26 06:10:49;;;;;;;13.15;2.53;;;16.60;24.40;;;;;;5091924;28;20119;-66
2021/11/26 06:13:15;;;;;;;;;;;16.50;24.70;;;;;;5101387;28;20080;-65
2021/11/26 06:15:42;;;;;;;16.50;2.45;;;16.50;24.80;;;;;;5081487;28;20403;-65
2021/11/26 06:18:08;;;;;;;;;;;16.50;24.70;;;;;;5074651;28;20126;-66
2021/11/26 06:20:35;;;;;;;10.77;2.58;;;16.50;24.80;;;;;;5091211;28;19972;-65
2021/11/26 06:23:01;;;;;;;;;;;16.50;24.80;;;;;;5081750;28;20111;-66
2021/11/26 06:25:27;;;;;;;21.70;4.18;;;16.50;24.90;;;;;;5102070;28;20058;-66
2021/11/26 06:27:54;;;;;;;18.17;3.28;;;16.50;25.10;;;;;;5073995;28;20092;-65
2021/11/26 06:30:23;;;;;;;17.05;2.38;;;16.50;24.80;;;;;;5079722;28;20122;-66
2021/11/26 06:32:51;;;;;;;18.25;2.28;;;16.40;24.40;;;;;;5074671;28;20072;-65
2021/11/26 06:35:20;;;;;;;13.23;2.58;;;16.40;24.10;;;;;;5098186;28;20112;-66
2021/11/26 06:37:48;;;;;;;22.27;2.88;;;16.30;23.60;;;;;;5098766;28;20120;-64
2021/11/26 06:40:15;;;;;;;16.50;3.33;;;16.30;23.30;;;;;;5100121;28;20143;-65
2021/11/26 06:42:42;;;;;;;15.43;2.53;;;16.20;23.10;;;;;;5079769;28;20076;-69
2021/11/26 06:45:09;;;;;;;25.42;2.63;;;16.20;22.80;;;;;;5073929;28;20072;-66
2021/11/26 06:47:36;;;;;;;16.20;2.22;;;16.20;22.70;;;;;;5079561;28;20456;-66
2021/11/26 06:50:05;;;;;;;13.95;2.10;;;16.20;22.90;;;;;;5099341;28;20084;-66
2021/11/26 06:52:32;;;;;;;18.75;1.83;;;16.20;23.10;;;;;;5091022;28;20686;-67
2021/11/26 06:54:59;;;;;;;15.05;2.65;;;16.20;23.30;;;;;;5074145;28;20099;-67
2021/11/26 06:57:26;;;;;;;19.83;2.20;;;16.20;23.50;;;;;;5100055;28;20483;-68
2021/11/26 06:59:53;;;;;;;;;;;16.10;23.80;;;;;;5080283;28;20133;-66
2021/11/26 07:02:21;;;;;;;12.63;2.10;;;16.10;23.80;;;;;;5069816;28;19964;-68
2021/11/26 07:04:48;;;;;;;14.55;2.08;;;16.10;24.10;;;;;;5089828;28;20077;-66
2021/11/26 07:07:15;;;;;;;15.85;2.28;;;16.10;24.10;;;;;;5076166;28;20073;-66
2021/11/26 07:09:42;;;;;;;9.18;1.83;;;16.00;24.40;;;;;;5099223;28;20462;-64
2021/11/26 07:12:11;;;;;;;15.52;2.13;;;16.00;24.30;;;;;;5099623;28;20087;-66
2021/11/26 07:14:42;;;;;;;14.52;1.80;;;16.00;24.30;;;;;;5063964;28;20087;-68
2021/11/26 07:17:09;;;;;;;11.85;2.53;;;15.90;24.20;;;;;;5081151;28;20084;-66
2021/11/26 07:19:37;;;;;;;17.80;2.08;;;15.90;24.00;;;;;;5094658;28;20100;-66
2021/11/26 07:22:04;;;;;;;13.68;2.42;;;15.90;23.70;;;;;;5088016;28;20107;-68
2021/11/26 07:24:31;;;;;;;15.60;2.60;;;15.90;23.70;;;;;;5088835;28;20073;-65
2021/11/26 07:26:57;;;;;;;;;;;15.80;23.40;;;;;;5081860;28;20080;-66
2021/11/26 07:29:23;;;;;;;14.20;2.05;;;15.80;23.60;;;;;;5063109;28;20441;-68
2021/11/26 07:31:50;;;;;;;13.52;2.30;;;15.80;23.70;;;;;;5098717;28;20124;-66
2021/11/26 07:34:16;;;;;;;7.80;2.00;;;15.80;23.70;;;;;;5089957;28;20173;-67
2021/11/26 07:36:42;;;;;;;;;;;15.80;23.70;;;;;;5089052;28;20086;-66
2021/11/26 07:39:09;;;;;;;18.65;3.20;;;15.70;23.70;;;;;;5071849;28;20055;-66
2021/11/26 07:41:35;;;;;;;;;;;15.80;24.00;;;;;;5089192;28;20106;-66
2021/11/26 07:44:01;;;;;;;28.33;9.77;;;15.70;24.00;;;;;;5098745;28;20414;-66
2021/11/26 07:46:27;;;;;;;;;;;15.70;24.20;;;;;;5099205;28;21367;-65
2021/11/26 07:48:54;;;;;;;20.88;8.68;;;15.70;24.10;;;;;;5070412;28;19957;-66
2021/11/26 07:51:20;;;;;;;;;;;15.60;24.10;;;;;;5077052;28;20111;-67
2021/11/26 07:53:46;;;;;;;17.60;6.97;;;15.60;23.90;;;;;;5077578;28;20007;-65
2021/11/26 07:56:12;;;;;;;;;;;15.60;23.70;;;;;;5077060;28;20076;-67
2021/11/26 07:58:38;;;;;;;25.17;3.30;;;15.60;23.80;;;;;;5071710;28;20009;-65
2021/11/26 08:01:05;;;;;;;11.88;2.20;;;15.60;23.90;;;;;;5076108;28;20088;-65
2021/11/26 08:03:31;;;;;;;7.93;2.30;;;15.60;23.90;;;;;;5098007;28;20088;-65
2021/11/26 08:05:57;;;;;;;;;;;15.60;24.00;;;;;;5087481;28;20453;-67
2021/11/26 08:08:24;;;;;;;17.15;3.78;;;15.60;24.00;;;;;;5064495;28;19964;-64
2021/11/26 08:10:50;;;;;;;;;;;15.60;24.10;;;;;;5077447;28;20198;-66
2021/11/26 08:13:16;;;;;;;12.98;2.40;;;15.60;24.00;;;;;;5097992;28;20445;-67
2021/11/26 08:15:43;;;;;;;11.20;2.58;;;15.60;24.10;;;;;;5098414;28;20469;-65
2021/11/26 08:18:09;;;;;;;15.43;2.70;;;15.60;24.20;;;;;;5089372;28;20546;-66
2021/11/26 08:20:39;;;;;;;17.35;2.40;;;15.50;24.50;;;;;;5098867;28;20107;-68
2021/11/26 08:23:07;;;;;;;8.32;2.28;;;15.50;24.20;;;;;;5088052;28;20145;-66
2021/11/26 08:25:34;;;;;;;17.50;2.70;;;15.50;24.40;;;;;;5088714;28;20069;-66
2021/11/26 08:28:02;;;;;;;11.10;2.10;;;15.50;24.60;;;;;;5089195;28;20526;-67
2021/11/26 08:30:28;;;;;;;12.45;3.10;;;15.50;24.60;;;;;;5089088;28;20202;-67
2021/11/26 08:32:55;;;;;;;11.55;3.35;;;15.50;24.70;;;;;;5073038;28;20073;-66
2021/11/26 08:35:24;;;;;;;13.65;3.05;;;15.40;24.60;;;;;;5072961;28;20141;-66
2021/11/26 08:37:51;;;;;;;23.48;4.60;;;15.40;24.30;;;;;;5074371;28;20174;-68
2021/11/26 08:40:18;;;;;;;12.40;3.70;;;15.30;24.20;;;;;;5090324;28;20135;-65
2021/11/26 08:42:46;;;;;;;15.60;3.40;;;15.30;24.00;;;;;;5074594;28;20076;-66
2021/11/26 08:45:13;;;;;;;11.02;2.97;;;15.30;23.80;;;;;;5094690;28;20080;-67
2021/11/26 08:47:40;;;;;;;14.50;2.83;;;15.30;23.80;;;;;;5089067;28;20079;-67
2021/11/26 08:50:13;;;;;;;16.63;2.78;;;15.20;23.60;;;;;;5078084;28;20587;-66
2021/11/26 08:52:39;;;;;;;14.57;2.70;;;15.20;23.20;;;;;;5069728;28;20184;-67
2021/11/26 08:55:07;;;;;;;;;;;15.20;23.20;;;;;;5094900;28;20164;-66
2021/11/26 08:57:35;;;;;;;11.38;2.50;;;15.30;23.10;;;;;;5071583;28;19957;-67
2021/11/26 09:00:03;;;;;;;11.80;2.78;;;15.20;23.30;;;;;;5072763;28;20450;-66
2021/11/26 09:02:30;;;;;;;14.35;2.30;;;15.20;23.40;;;;;;5071358;28;20077;-68
2021/11/26 09:04:56;;;;;;;;;;;15.20;23.60;;;;;;5095196;28;20073;-68
2021/11/26 09:07:22;;;;;;;12.10;2.22;;;15.10;23.70;;;;;;5092958;28;19956;-66
2021/11/26 09:09:48;;;;;;;;;;;15.10;23.90;;;;;;5076117;28;20073;-66
2021/11/26 09:12:15;;;;;;;13.65;2.08;;;15.10;24.30;;;;;;5093765;28;20321;-67
2021/11/26 09:14:41;;;;;;;20.27;2.08;;;15.10;24.40;;;;;;5093462;28;20080;-66
2021/11/26 09:17:07;;;;;;;17.55;2.53;;;15.10;24.70;;;;;;5073459;28;20162;-66
2021/11/26 09:19:34;;;;;;;;;;;15.00;25.50;;;;;;5094127;28;20085;-67
2021/11/26 09:22:00;;;;;;;14.43;2.22;;;15.00;25.80;;;;;;5077009;28;20035;-67
2021/11/26 09:24:26;;;;;;;;;;;15.00;26.50;;;;;;5073543;28;20069;-67
2021/11/26 09:26:53;;;;;;;8.07;2.00;;;15.00;25.90;;;;;;5100403;28;19968;-67
2021/11/26 09:29:19;;;;;;;;;;;15.00;26.30;;;;;;5080359;28;20141;-67
2021/11/26 09:31:45;;;;;;;14.35;2.13;;;14.90;26.10;;;;;;5099616;28;19984;-68
2021/11/26 09:34:11;;;;;;;13.15;2.30;;;14.90;25.80;;;;;;5099904;28;20130;-68
2021/11/26 09:36:38;;;;;;;26.25;2.38;;;14.90;26.00;;;;;;5083549;28;20077;-67
2021/11/26 09:39:05;;;;;;;;;;;14.80;26.30;;;;;;5098990;28;20068;-67
2021/11/26 09:41:32;;;;;;;9.45;2.25;;;14.80;26.90;;;;;;5078725;28;20001;-68
2021/11/26 09:44:01;;;;;;;17.67;2.80;;;14.80;27.30;;;;;;5083328;28;20083;-68
2021/11/26 09:46:30;;;;;;;12.32;2.38;;;14.70;27.30;;;;;;5099519;28;20155;-67
2021/11/26 09:48:57;;;;;;;15.70;2.33;;;14.60;27.50;;;;;;5080086;28;20465;-68
2021/11/26 09:51:24;;;;;;;19.58;3.03;;;14.60;27.70;;;;;;5082172;28;20148;-67
2021/11/26 09:53:51;;;;;;;13.55;2.63;;;14.50;28.00;;;;;;5097329;28;20685;-68
2021/11/26 09:56:18;;;;;;;11.80;2.45;;;14.60;28.30;;;;;;5097016;28;20084;-68
2021/11/26 09:58:45;;;;;;;13.85;2.15;;;14.50;28.50;;;;;;5076495;28;20530;-67
2021/11/26 10:01:11;;;;;;;17.45;2.50;;;14.40;28.60;;;;;;5079268;28;20092;-66
2021/11/26 10:03:47;;;;;;;22.98;3.10;;;14.40;28.60;;;;;;5100361;28;20149;-66
2021/11/26 10:06:37;;;;;;;9.82;2.08;;;14.40;28.30;;;;;;5078762;28;20083;-66
2021/11/26 10:09:11;;;;;;;13.38;2.70;;;14.30;28.00;;;;;;5098318;28;20088;-67
2021/11/26 10:11:45;;;;;;;17.38;2.40;;;14.30;28.40;;;;;;5076225;28;20171;-66
2021/11/26 10:14:41;;;;;;;13.77;2.70;;;14.20;28.40;;;;;;5098784;28;20076;-67
2021/11/26 10:17:16;;;;;;;17.10;2.78;;;14.20;28.10;;;;;;5076360;28;20478;-68
2021/11/26 10:19:46;;;;;;;13.07;2.33;;;14.10;28.00;;;;;;5098739;28;20088;-67
2021/11/26 10:22:24;;;;;;;13.82;2.42;;;14.10;27.60;;;;;;5099940;28;20065;-69
2021/11/26 10:25:13;;;;;;;21.85;2.53;;;14.20;27.10;;;;;;5079119;28;20100;-70
2021/11/26 10:27:57;;;;;;;12.75;2.47;;;14.20;26.50;;;;;;5101543;28;20095;-72
2021/11/26 10:30:30;;;;;;;15.75;2.53;;;14.20;26.30;;;;;;5094686;28;20234;-66
2021/11/26 10:32:58;;;;;;;8.43;1.92;;;14.10;26.70;;;;;;5096904;28;20076;-68
2021/11/26 10:35:42;;;;;;;15.65;2.53;;;14.10;26.70;;;;;;5099653;28;20084;-69
2021/11/26 10:38:10;;;;;;;14.88;1.90;;;14.20;27.50;;;;;;5095625;28;20124;-68
2021/11/26 10:40:39;;;;;;;10.43;2.00;;;14.20;27.90;;;;;;5072359;28;20091;-68
2021/11/26 10:43:17;;;;;;;11.68;1.98;;;14.20;27.80;;;;;;5071690;28;20069;-68
2021/11/26 10:51:31;;;;;;;18.17;2.63;;;14.10;25.90;;;;;;5096042;28;21482;-67
2021/11/26 10:59:26;;;;;;;7.47;1.92;;;14.10;25.70;;;;;;5094673;28;20174;-67
2021/11/26 11:01:53;;;;;;;10.63;2.00;;;14.10;25.60;;;;;;5077174;28;20430;-67
2021/11/26 11:04:22;;;;;;;11.93;2.30;;;14.10;25.20;;;;;;5079446;28;20085;-68
2021/11/26 11:07:09;;;;;;;7.38;2.40;;;14.10;25.80;;;;;;5097609;28;20582;-68
2021/11/26 11:09:44;;;;;;;12.30;2.40;;;14.10;25.20;;;;;;5072468;28;20104;-67
2021/11/26 11:12:12;;;;;;;9.73;2.65;;;14.10;24.60;;;;;;5092845;28;20120;-68
2021/11/26 11:14:40;;;;;;;10.35;3.20;;;14.10;24.70;;;;;;5096914;28;20084;-68
2021/11/26 11:17:07;;;;;;;15.50;3.08;;;14.00;25.90;;;;;;5097372;28;20129;-67
2021/11/26 11:19:34;;;;;;;9.85;2.28;;;14.00;26.20;;;;;;5095554;28;20443;-66
2021/11/26 11:22:01;;;;;;;12.75;2.65;;;14.10;24.90;;;;;;5094768;28;20537;-68
2021/11/26 11:24:28;;;;;;;12.80;2.63;;;14.00;25.20;;;;;;5074234;28;20084;-67
2021/11/26 11:26:55;;;;;;;16.65;2.45;;;14.00;26.50;;;;;;5078793;28;20433;-67
2021/11/26 11:29:25;;;;;;;11.75;2.67;;;14.00;25.10;;;;;;5077697;28;20167;-67
2021/11/26 11:31:54;;;;;;;11.13;2.55;;;14.00;24.80;;;;;;5095694;28;20135;-67
2021/11/26 11:34:24;;;;;;;14.25;2.90;;;14.00;24.80;;;;;;5098280;28;20159;-68
2021/11/26 11:36:54;;;;;;;16.45;2.53;;;13.90;24.90;;;;;;5074967;28;20087;-67
2021/11/26 11:39:21;;;;;;;17.95;2.55;;;14.10;25.70;;;;;;5073943;28;20164;-68
2021/11/26 11:41:54;;;;;;;11.82;2.28;;;13.80;25.20;;;;;;5094233;28;20068;-66
2021/11/26 11:44:29;;;;;;;15.02;2.33;;;13.80;25.10;;;;;;5075025;28;20518;-67
2021/11/26 11:47:15;;;;;;;17.40;2.17;;;13.80;25.30;;;;;;5072873;28;20080;-68
2021/11/26 11:49:42;;;;;;;6.18;1.55;;;13.80;25.20;;;;;;5073201;28;20115;-69
2021/11/26 11:52:11;;;;;;;12.43;2.50;;;13.80;25.10;;;;;;5073758;28;20112;-69
2021/11/26 11:54:43;;;;;;;11.73;2.03;;;13.80;25.40;;;;;;5090271;28;20074;-67
2021/11/26 11:57:26;;;;;;;14.45;1.90;;;13.70;25.90;;;;;;5088984;28;20844;-68
2021/11/26 12:00:06;;;;;;;13.00;1.60;;;13.70;26.20;;;;;;5092189;28;20131;-65
2021/11/26 12:02:33;;;;;;;11.95;1.83;;;13.70;26.40;;;;;;5071751;28;20095;-67
2021/11/26 12:04:59;;;;;;;;;;;13.60;26.20;;;;;;5075914;28;20079;-67
2021/11/26 12:07:27;;;;;;;16.95;1.83;;;13.60;26.30;;;;;;5073034;28;19980;-67
2021/11/26 12:10:08;;;;;;;8.73;2.10;;;13.60;26.20;;;;;;5076598;28;20484;-67
2021/11/26 12:13:04;;;;;;;11.52;1.95;;;13.60;26.30;;;;;;5075354;28;20076;-67
2021/11/26 12:15:33;;;;;;;12.95;2.13;;;13.60;26.50;;;;;;5010850;28;20660;-67
2021/11/26 12:18:08;;;;;;;11.68;1.95;;;13.60;26.10;;;;;;5031053;28;20085;-67
2021/11/26 12:20:37;;;;;;;16.45;2.05;;;13.60;26.10;;;;;;5011758;28;20094;-68
2021/11/26 12:23:24;;;;;;;13.63;1.88;;;13.50;26.20;;;;;;5030229;28;20080;-66
2021/11/26 12:26:21;;;;;;;20.60;2.00;;;13.50;26.50;;;;;;5031299;28;20082;-67
2021/11/26 12:29:03;;;;;;;18.73;1.88;;;13.50;26.70;;;;;;5014403;28;20556;-66
2021/11/26 12:31:35;;;;;;;21.17;2.30;;;13.50;26.80;;;;;;5030105;28;20127;-67
2021/11/26 12:34:13;;;;;;;8.75;1.83;;;13.50;26.60;;;;;;5015874;28;20074;-68
2021/11/26 12:36:52;;;;;;;12.43;1.83;;;13.50;26.20;;;;;;5033026;28;20236;-67
2021/11/26 12:39:30;;;;;;;9.68;1.80;;;13.40;25.80;;;;;;5012284;28;20140;-68
2021/11/26 12:41:59;;;;;;;9.82;1.80;;;13.40;25.90;;;;;;5011126;28;20077;-67
2021/11/26 12:44:32;;;;;;;9.55;1.75;;;13.40;25.90;;;;;;5002126;28;20566;-67
2021/11/26 12:47:01;;;;;;;14.55;2.20;;;13.30;26.20;;;;;;5015823;28;20417;-68
2021/11/26 12:51:03;;;;;;;13.35;2.60;;;13.40;26.10;;;;;;5001490;28;20121;-68
2021/11/26 12:52:21;;;;;;;12.45;2.75;;;13.30;25.20;;;;;;5017017;28;20089;-69
2021/11/26 12:54:50;;;;;;;6.43;1.80;;;13.30;24.40;;;;;;5017210;28;20089;-68
2021/11/26 12:57:23;;;;;;;12.05;1.65;;;13.40;24.20;;;;;;5035167;28;20073;-69
2021/11/26 12:59:55;;;;;;;15.73;2.05;;;13.30;24.10;;;;;;5051308;28;20526;-68
2021/11/26 13:02:33;;;;;;;15.25;2.00;;;13.30;23.90;;;;;;5033712;28;20596;-67
2021/11/26 13:05:16;;;;;;;8.15;1.75;;;13.30;23.80;;;;;;5040783;28;20084;-66
2021/11/26 13:07:44;;;;;;;11.93;1.45;;;13.30;23.80;;;;;;5035823;28;20066;-69